Time;durP1;ratioP1;P1;durP2;ratioP2;P2;SDS_P1;SDS_P2;PMS_P1;PMS_P2;Temp;Humidity;BMP_temperature;BMP_pressure;BME280_temperature;BME280_humidity;BME280_pressure;Samples;Min_cycle;Max_cycle;Signal;HPM_P1;HPM_P2
2021/01/27 00:02:20;;;;;;;30.27;17.67;;;;;;;1.74;82.90;100856.25;5017886;28;20217;-81
2021/01/27 00:04:46;;;;;;;27.97;16.77;;;;;;;1.76;83.55;100856.22;5017482;28;20757;-81
2021/01/27 00:07:12;;;;;;;33.70;19.03;;;;;;;1.76;83.87;100858.84;5018355;28;20211;-81
2021/01/27 00:09:38;;;;;;;29.33;18.23;;;;;;;1.78;83.45;100858.81;5018009;28;20227;-81
2021/01/27 00:12:05;;;;;;;31.27;17.67;;;;;;;1.80;83.04;100852.59;5032044;28;20248;-81
2021/01/27 00:14:31;;;;;;;32.07;17.87;;;;;;;1.82;83.45;100857.81;5024166;28;20607;-81
2021/01/27 00:16:58;;;;;;;28.47;16.40;;;;;;;1.85;83.98;100849.88;5017873;28;20211;-81
2021/01/27 00:19:24;;;;;;;26.90;16.70;;;;;;;1.88;83.84;100852.44;5018674;28;20209;-81
2021/01/27 00:21:50;;;;;;;28.10;17.10;;;;;;;1.91;83.35;100855.84;5018247;28;20226;-80
2021/01/27 00:24:16;;;;;;;30.40;17.90;;;;;;;1.92;83.37;100848.84;5017349;28;20236;-82
2021/01/27 00:26:42;;;;;;;28.40;17.07;;;;;;;1.95;83.85;100854.03;5018159;28;20233;-81
2021/01/27 00:29:08;;;;;;;30.40;17.93;;;;;;;1.94;83.32;100858.41;5022295;28;20594;-81
2021/01/27 00:31:34;;;;;;;29.43;17.77;;;;;;;1.95;83.94;100854.88;5019800;28;20203;-81
2021/01/27 00:34:01;;;;;;;29.40;17.90;;;;;;;1.95;83.86;100849.63;5020324;28;20297;-82
2021/01/27 00:36:28;;;;;;;29.00;17.80;;;;;;;1.96;83.43;100845.25;5018988;28;20203;-80
2021/01/27 00:38:54;;;;;;;32.97;18.13;;;;;;;1.94;83.48;100837.41;5022964;28;20199;-81
2021/01/27 00:41:20;;;;;;;27.83;16.97;;;;;;;1.95;83.40;100840.88;5027144;28;20233;-81
2021/01/27 00:43:46;;;;;;;26.40;16.90;;;;;;;1.95;84.10;100840.88;5016481;28;20603;-80
2021/01/27 00:46:12;;;;;;;32.63;18.83;;;;;;;1.94;83.98;100832.13;5025416;28;20607;-81
2021/01/27 00:48:38;;;;;;;33.80;18.57;;;;;;;1.94;83.11;100826.88;5027110;28;20253;-81
2021/01/27 00:51:05;;;;;;;31.33;18.70;;;;;;;1.94;83.94;100826.03;5016640;28;20211;-80
2021/01/27 00:53:31;;;;;;;33.83;18.00;;;;;;;1.94;83.93;100828.66;5024281;28;20253;-81
2021/01/27 00:55:57;;;;;;;29.13;18.50;;;;;;;1.94;83.98;100824.25;5027294;28;20202;-80
2021/01/27 00:58:23;;;;;;;33.07;19.10;;;;;;;1.94;83.32;100820.78;5026094;28;20669;-80
2021/01/27 01:00:49;;;;;;;35.80;18.97;;;;;;;1.93;83.72;100825.16;5014798;28;20211;-80
2021/01/27 01:03:15;;;;;;;35.27;20.37;;;;;;;1.92;83.89;100822.56;5014011;28;20293;-80
2021/01/27 01:05:43;;;;;;;40.77;21.43;;;;;;;1.92;83.36;100812.94;5025985;28;20237;-81
2021/01/27 01:08:12;;;;;;;41.17;21.17;;;;;;;1.89;83.45;100813.00;5021933;28;20226;-82
2021/01/27 01:10:40;;;;;;;44.13;23.33;;;;;;;1.88;84.05;100810.41;5015886;28;20218;-82
2021/01/27 01:13:09;;;;;;;37.03;20.97;;;;;;;1.85;83.91;100803.47;5025906;28;20210;-80
2021/01/27 01:15:36;;;;;;;42.73;23.47;;;;;;;1.83;83.62;100807.88;5018018;28;20218;-81
2021/01/27 01:18:02;;;;;;;39.30;21.63;;;;;;;1.82;83.45;100810.56;5021373;28;20234;-81
2021/01/27 01:20:28;;;;;;;43.60;22.53;;;;;;;1.81;83.36;100807.06;5022002;28;20207;-81
2021/01/27 01:22:56;;;;;;;46.17;23.60;;;;;;;1.80;83.41;100805.34;5013454;28;20660;-81
2021/01/27 01:25:25;;;;;;;38.10;22.33;;;;;;;1.79;83.40;100811.53;5026076;28;20226;-81
2021/01/27 01:27:52;;;;;;;45.77;23.00;;;;;;;1.79;83.85;100814.16;5015248;28;20624;-82
2021/01/27 01:30:23;;;;;;;40.80;21.73;;;;;;;1.80;83.14;100818.47;5027146;28;20206;-82
2021/01/27 01:32:49;;;;;;;45.83;22.97;;;;;;;1.80;83.79;100815.84;5016048;28;20202;-81
2021/01/27 01:35:17;;;;;;;44.90;23.93;;;;;;;1.81;83.81;100814.06;5014855;28;20762;-80
2021/01/27 01:37:44;;;;;;;45.70;23.17;;;;;;;1.80;83.51;100810.59;5021347;28;20194;-80
2021/01/27 01:40:12;;;;;;;45.93;22.27;;;;;;;1.80;83.46;100807.97;5017471;28;20567;-80
2021/01/27 01:42:39;;;;;;;45.83;24.77;;;;;;;1.79;83.71;100806.25;5022140;28;20209;-79
2021/01/27 01:45:14;;;;;;;47.20;25.33;;;;;;;1.77;83.61;100810.69;5022369;28;20608;-82
2021/01/27 01:47:40;;;;;;;46.53;25.63;;;;;;;1.79;83.39;100802.78;5024762;28;20207;-80
2021/01/27 01:50:07;;;;;;;47.97;24.23;;;;;;;1.78;83.60;100808.94;5015889;28;20712;-81
2021/01/27 01:52:33;;;;;;;45.83;23.10;;;;;;;1.76;83.80;100801.09;5021724;28;20203;-81
2021/01/27 01:54:59;;;;;;;50.47;26.77;;;;;;;1.77;83.06;100802.81;5025902;28;20230;-80
2021/01/27 01:57:28;;;;;;;44.20;25.20;;;;;;;1.77;83.76;100800.19;5025518;28;20210;-80
2021/01/27 02:00:01;;;;;;;47.03;25.20;;;;;;;1.77;83.10;100796.69;5022254;28;20214;-80
2021/01/27 02:02:27;;;;;;;48.50;24.73;;;;;;;1.75;83.42;100794.09;5014063;28;20195;-82
2021/01/27 02:04:56;;;;;;;49.37;26.20;;;;;;;1.74;83.28;100790.63;5015906;28;20704;-81
2021/01/27 02:07:23;;;;;;;51.57;26.03;;;;;;;1.73;83.16;100782.78;5024698;28;20206;-82
2021/01/27 02:09:49;;;;;;;49.43;25.20;;;;;;;1.76;83.85;100792.34;5020472;28;20228;-82
2021/01/27 02:12:30;;;;;;;50.17;24.30;;;;;;;1.76;83.16;100794.97;5018169;28;20211;-81
2021/01/27 02:15:25;;;;;;;47.93;25.83;;;;;;;1.76;83.14;100793.22;5019044;28;20230;-81
2021/01/27 02:18:00;;;;;;;45.23;23.33;;;;;;;1.79;83.30;100797.53;5013746;28;20215;-81
2021/01/27 02:20:53;;;;;;;49.17;26.13;;;;;;;1.78;83.50;100778.28;5013290;28;20209;-81
2021/01/27 02:23:58;;;;;;;45.10;24.90;;;;;;;1.79;84.03;100774.75;5022689;28;20209;-79
2021/01/27 02:27:03;;;;;;;46.83;26.20;;;;;;;1.81;83.21;100775.56;4975960;28;20696;-80
2021/01/27 02:29:44;;;;;;;50.17;25.43;;;;;;;1.82;83.37;100776.41;5004186;28;20624;-80
2021/01/27 02:32:32;;;;;;;48.17;26.50;;;;;;;1.83;83.41;100776.38;5013741;28;20205;-80
2021/01/27 02:35:12;;;;;;;45.77;25.90;;;;;;;1.83;83.95;100779.00;5017698;28;20230;-80
2021/01/27 02:37:44;;;;;;;43.57;24.33;;;;;;;1.84;83.46;100772.00;5023903;28;20563;-81
2021/01/27 02:40:16;;;;;;;42.80;24.07;;;;;;;1.85;83.82;100771.94;5023887;28;20196;-80
2021/01/27 02:42:50;;;;;;;41.37;22.53;;;;;;;1.86;83.79;100765.81;5019351;28;20222;-80
2021/01/27 02:45:22;;;;;;;41.27;23.17;;;;;;;1.86;83.80;100765.81;5023959;28;20240;-80
2021/01/27 02:47:55;;;;;;;44.53;23.63;;;;;;;1.88;83.34;100764.00;5026680;28;20207;-80
2021/01/27 02:50:25;;;;;;;42.20;22.53;;;;;;;1.89;83.83;100764.88;5027521;28;20688;-81
2021/01/27 02:53:00;;;;;;;40.73;22.97;;;;;;;1.90;83.38;100759.56;5017679;28;20211;-80
2021/01/27 02:55:32;;;;;;;40.00;22.93;;;;;;;1.91;83.79;100758.69;5019737;28;20226;-81
2021/01/27 02:58:05;;;;;;;45.93;24.20;;;;;;;1.92;83.87;100762.16;5021003;28;20213;-80
2021/01/27 03:00:35;;;;;;;41.37;23.70;;;;;;;1.90;83.43;100751.69;5015934;28;20254;-80
2021/01/27 03:03:05;;;;;;;41.73;22.97;;;;;;;1.92;83.18;100755.16;5016756;28;20281;-80
2021/01/27 03:05:36;;;;;;;41.77;23.23;;;;;;;1.93;83.25;100759.50;5030359;28;20246;-80
2021/01/27 03:08:08;;;;;;;42.00;23.73;;;;;;;1.93;83.55;100751.63;5022514;28;20575;-80
2021/01/27 03:10:40;;;;;;;34.10;20.93;;;;;;;1.94;83.71;100747.22;5017716;28;20198;-80
2021/01/27 03:13:07;;;;;;;39.93;22.10;;;;;;;1.94;83.22;100734.97;5028113;28;20634;-80
2021/01/27 03:15:37;;;;;;;34.20;20.50;;;;;;;1.95;83.38;100735.81;5021456;28;20281;-80
2021/01/27 03:18:06;;;;;;;34.13;20.83;;;;;;;1.95;83.56;100727.94;5023202;28;20203;-79
2021/01/27 03:20:36;;;;;;;34.93;20.33;;;;;;;1.95;83.08;100730.56;5024670;28;20692;-80
2021/01/27 03:23:09;;;;;;;31.17;19.13;;;;;;;1.93;83.36;100729.75;5016999;28;20203;-80
2021/01/27 03:25:47;;;;;;;32.50;19.60;;;;;;;1.92;82.65;100726.25;5017690;28;20239;-80
2021/01/27 03:28:20;;;;;;;27.37;19.07;;;;;;;1.90;83.34;100724.56;5019613;28;20251;-80
2021/01/27 03:30:46;;;;;;;42.50;20.67;;;;;;;1.88;83.36;100719.34;5033984;28;20198;-80
2021/01/27 03:33:16;;;;;;;34.53;19.67;;;;;;;1.87;82.47;100708.88;5016729;28;20211;-81
2021/01/27 03:35:47;;;;;;;32.73;19.27;;;;;;;1.85;82.60;100706.31;5025779;28;20230;-81
2021/01/27 03:38:19;;;;;;;32.30;19.87;;;;;;;1.84;82.78;100711.59;5026789;28;20238;-82
2021/01/27 03:40:49;;;;;;;36.77;19.60;;;;;;;1.82;82.40;100703.75;5009787;28;20273;-81
2021/01/27 03:43:21;;;;;;;34.13;19.03;;;;;;;1.82;82.31;100698.50;5024063;28;20289;-81
2021/01/27 03:45:50;;;;;;;34.67;19.67;;;;;;;1.81;82.52;100691.53;5021319;28;20226;-80
2021/01/27 03:48:23;;;;;;;32.37;19.07;;;;;;;1.81;82.81;100703.78;5015346;28;20208;-82
2021/01/27 03:50:54;;;;;;;29.57;18.00;;;;;;;1.81;82.47;100709.91;5011053;28;20205;-81
2021/01/27 03:53:21;;;;;;;28.17;17.73;;;;;;;1.79;82.54;100706.50;5026556;28;20800;-81
2021/01/27 03:55:53;;;;;;;33.10;19.37;;;;;;;1.80;82.95;100696.81;5027629;28;20723;-81
2021/01/27 03:58:23;;;;;;;31.63;20.00;;;;;;;1.79;82.72;100708.25;5025219;28;20217;-81
2021/01/27 04:00:50;;;;;;;34.70;20.07;;;;;;;1.79;82.81;100695.13;5014372;28;20209;-81
2021/01/27 04:03:19;;;;;;;31.23;18.90;;;;;;;1.78;82.66;100696.03;5019751;28;20206;-82
2021/01/27 04:05:45;;;;;;;32.03;19.47;;;;;;;1.77;82.18;100691.66;5024035;28;20214;-81
2021/01/27 04:08:12;;;;;;;33.90;20.60;;;;;;;1.76;82.16;100682.94;5028623;28;20210;-81
2021/01/27 04:10:38;;;;;;;32.80;19.93;;;;;;;1.74;82.75;100680.34;5025698;28;20688;-81
2021/01/27 04:13:05;;;;;;;33.50;18.70;;;;;;;1.75;81.99;100681.22;5022956;28;20225;-81
2021/01/27 04:15:31;;;;;;;29.03;17.87;;;;;;;1.74;82.35;100676.84;5016716;28;20649;-79
2021/01/27 04:17:57;;;;;;;27.17;17.30;;;;;;;1.72;82.32;100674.28;5023529;28;20206;-79
2021/01/27 04:20:23;;;;;;;26.07;16.23;;;;;;;1.72;82.16;100674.28;5017353;28;20230;-80
2021/01/27 04:22:49;;;;;;;29.93;17.60;;;;;;;1.72;82.12;100678.66;5035028;28;20253;-80
2021/01/27 04:25:17;;;;;;;32.10;17.50;;;;;;;1.71;82.30;100682.19;5026584;28;20594;-82
2021/01/27 04:27:43;;;;;;;25.80;16.10;;;;;;;1.71;82.19;100677.78;5021853;28;20226;-80
2021/01/27 04:30:13;;;;;;;26.37;16.40;;;;;;;1.70;82.43;100670.81;5016398;28;20238;-81
2021/01/27 04:32:39;;;;;;;24.40;16.50;;;;;;;1.70;81.98;100668.19;5018314;28;20203;-81
2021/01/27 04:35:06;;;;;;;27.37;16.90;;;;;;;1.71;82.04;100661.19;5022139;28;20227;-82
2021/01/27 04:37:32;;;;;;;23.40;15.90;;;;;;;1.70;81.81;100654.22;5026421;28;20202;-81
2021/01/27 04:39:58;;;;;;;22.70;16.10;;;;;;;1.69;81.84;100665.59;5027730;28;20255;-80
2021/01/27 04:42:28;;;;;;;26.77;16.30;;;;;;;1.70;82.31;100667.34;5024940;28;20210;-81
2021/01/27 04:44:56;;;;;;;22.03;15.10;;;;;;;1.70;81.93;100662.06;5020054;28;20614;-81
2021/01/27 04:47:29;;;;;;;20.13;13.80;;;;;;;1.67;82.03;100649.03;5028253;28;20217;-81
2021/01/27 04:50:00;;;;;;;22.83;14.37;;;;;;;1.68;81.91;100651.63;5021878;28;20226;-81
2021/01/27 04:52:47;;;;;;;24.80;14.63;;;;;;;1.69;81.78;100652.47;5016924;28;20203;-81
2021/01/27 04:55:28;;;;;;;22.00;13.97;;;;;;;1.67;81.64;100646.41;5012104;28;20226;-81
2021/01/27 04:58:05;;;;;;;21.43;13.70;;;;;;;1.66;82.29;100649.94;5028511;28;20631;-81
2021/01/27 05:01:04;;;;;;;22.37;13.47;;;;;;;1.64;81.48;100649.97;5023085;28;20195;-82
2021/01/27 05:03:50;;;;;;;26.77;13.87;;;;;;;1.64;81.69;100656.97;5011113;28;20213;-81
2021/01/27 05:06:21;;;;;;;19.20;13.27;;;;;;;1.62;81.78;100657.03;5027242;28;20221;-80
2021/01/27 05:09:00;;;;;;;17.93;13.10;;;;;;;1.61;81.46;100649.22;5023926;28;20228;-81
2021/01/27 05:11:28;;;;;;;20.53;12.70;;;;;;;1.61;81.47;100662.34;5026594;28;20209;-81
2021/01/27 05:13:57;;;;;;;23.30;13.07;;;;;;;1.60;81.13;100652.75;5023634;28;20227;-81
2021/01/27 05:16:26;;;;;;;17.67;12.57;;;;;;;1.60;81.60;100648.34;5016426;28;20217;-81
2021/01/27 05:18:56;;;;;;;21.20;13.50;;;;;;;1.59;81.58;100648.38;5018354;28;20209;-79
2021/01/27 05:21:27;;;;;;;22.13;14.67;;;;;;;1.58;80.96;100649.28;5014121;28;20668;-80
2021/01/27 05:23:54;;;;;;;21.97;13.70;;;;;;;1.57;81.46;100642.31;5011227;28;20230;-80
2021/01/27 05:26:22;;;;;;;20.50;14.43;;;;;;;1.56;81.51;100648.47;5016035;28;20610;-81
2021/01/27 05:28:57;;;;;;;22.03;12.60;;;;;;;1.55;80.96;100639.72;5012740;28;20627;-81
2021/01/27 05:31:23;;;;;;;17.90;11.83;;;;;;;1.57;80.84;100637.06;5021113;28;20203;-81
2021/01/27 05:33:51;;;;;;;19.97;13.00;;;;;;;1.57;80.88;100642.31;5015677;28;20227;-81
2021/01/27 05:36:22;;;;;;;20.67;13.50;;;;;;;1.54;80.57;100638.00;5024771;28;20211;-81
2021/01/27 05:38:49;;;;;;;19.73;12.67;;;;;;;1.55;81.11;100646.75;5014411;28;20199;-80
2021/01/27 05:41:22;;;;;;;22.50;12.97;;;;;;;1.53;80.84;100644.16;5013896;28;20612;-81
2021/01/27 05:43:49;;;;;;;18.67;12.03;;;;;;;1.54;80.95;100648.50;5003497;28;20225;-79
2021/01/27 05:46:28;;;;;;;16.07;12.30;;;;;;;1.53;80.62;100641.53;5015971;28;20667;-79
2021/01/27 05:48:54;;;;;;;19.97;12.90;;;;;;;1.52;80.71;100641.56;5016404;28;20230;-79
2021/01/27 05:51:30;;;;;;;16.57;12.23;;;;;;;1.53;80.44;100638.03;5017661;28;20207;-79
2021/01/27 05:53:56;;;;;;;18.97;12.10;;;;;;;1.53;80.30;100640.66;5017797;28;20226;-80
2021/01/27 05:56:24;;;;;;;16.33;11.37;;;;;;;1.53;80.35;100651.16;5018549;28;20203;-81
2021/01/27 05:58:59;;;;;;;17.47;11.80;;;;;;;1.53;80.05;100644.16;5019999;28;20266;-81
2021/01/27 06:01:36;;;;;;;16.80;11.07;;;;;;;1.52;79.97;100645.06;5016818;28;20206;-81
2021/01/27 06:04:15;;;;;;;14.77;10.57;;;;;;;1.53;80.18;100646.78;5017256;28;20237;-80
2021/01/27 06:06:55;;;;;;;14.80;11.13;;;;;;;1.53;79.53;100640.66;5020376;28;20613;-82
2021/01/27 06:09:39;;;;;;;16.87;11.07;;;;;;;1.54;79.80;100645.03;5018222;28;20221;-82
2021/01/27 06:12:10;;;;;;;15.63;10.33;;;;;;;1.55;79.53;100646.75;5017606;28;20225;-81
2021/01/27 06:14:36;;;;;;;16.30;10.77;;;;;;;1.53;79.35;100633.66;5017000;28;20226;-81
2021/01/27 06:17:26;;;;;;;14.13;10.13;;;;;;;1.54;79.39;100645.88;5012022;28;20211;-82
2021/01/27 06:20:04;;;;;;;15.83;10.10;;;;;;;1.53;78.94;100644.16;5012078;28;20254;-81
2021/01/27 06:22:52;;;;;;;15.00;11.37;;;;;;;1.52;78.98;100642.44;5023238;28;20249;-81
2021/01/27 06:25:36;;;;;;;16.90;11.33;;;;;;;1.53;78.55;100632.78;5028427;28;20231;-80
2021/01/27 06:28:23;;;;;;;15.27;10.93;;;;;;;1.49;78.53;100632.00;5026354;28;20583;-81
2021/01/27 06:30:59;;;;;;;13.90;10.60;;;;;;;1.48;78.57;100621.56;5016448;28;20741;-80
2021/01/27 06:33:52;;;;;;;14.80;10.37;;;;;;;1.48;78.73;100619.78;5016805;28;20219;-82
2021/01/27 06:36:35;;;;;;;14.73;10.23;;;;;;;1.48;78.15;100613.69;5018679;28;20203;-82
2021/01/27 06:39:43;;;;;;;14.60;10.37;;;;;;;1.48;78.51;100614.53;5017260;28;20199;-82
2021/01/27 06:42:30;;;;;;;15.90;10.90;;;;;;;1.48;78.24;100613.69;5017831;28;20207;-80
2021/01/27 06:45:06;;;;;;;14.50;10.17;;;;;;;1.48;77.99;100608.44;5018434;28;20241;-82
2021/01/27 06:48:00;;;;;;;17.07;10.10;;;;;;;1.43;78.13;100603.31;5015271;28;20582;-81
2021/01/27 06:50:47;;;;;;;14.43;10.10;;;;;;;1.43;77.91;100618.22;5017512;28;20226;-83
2021/01/27 06:53:41;;;;;;;14.77;9.77;;;;;;;1.43;77.60;100610.34;5013173;28;20676;-81
2021/01/27 06:56:27;;;;;;;13.43;9.37;;;;;;;1.42;78.16;100598.13;5016596;28;20229;-81
2021/01/27 06:59:34;;;;;;;14.17;8.73;;;;;;;1.41;77.30;100602.50;5018915;28;20199;-80
2021/01/27 07:02:41;;;;;;;13.13;8.33;;;;;;;1.39;77.36;100602.53;4952692;29;20212;-79
2021/01/27 07:05:22;;;;;;;14.83;9.73;;;;;;;1.38;77.23;100594.69;5019922;28;20222;-82
2021/01/27 07:08:08;;;;;;;14.30;9.00;;;;;;;1.37;77.04;100585.97;5017266;28;20299;-82
2021/01/27 07:10:47;;;;;;;13.33;9.43;;;;;;;1.37;77.37;100585.97;5017538;28;20870;-81
2021/01/27 07:13:34;;;;;;;15.33;9.27;;;;;;;1.38;77.19;100589.47;5017467;28;20199;-81
2021/01/27 07:16:03;;;;;;;11.10;8.40;;;;;;;1.37;76.84;100588.59;5021272;28;20649;-81
2021/01/27 07:19:06;;;;;;;12.17;8.97;;;;;;;1.36;77.13;100592.13;5023114;28;20891;-82
2021/01/27 07:21:36;;;;;;;10.10;7.87;;;;;;;1.36;77.13;100576.38;5024626;28;20238;-81
2021/01/27 07:24:10;;;;;;;11.43;6.50;;;;;;;1.35;76.83;100587.78;5023704;28;20234;-82
2021/01/27 07:26:41;;;;;;;10.10;7.03;;;;;;;1.37;76.50;100585.09;5019048;28;20594;-81
2021/01/27 07:29:11;;;;;;;10.03;7.07;;;;;;;1.38;76.70;100589.47;5027118;28;20229;-81
2021/01/27 07:31:44;;;;;;;9.67;6.93;;;;;;;1.37;76.24;100577.25;5027445;28;20199;-82
2021/01/27 07:34:15;;;;;;;10.03;6.67;;;;;;;1.38;76.61;100590.31;5021138;28;20721;-81
2021/01/27 07:36:53;;;;;;;10.50;7.47;;;;;;;1.39;76.23;100591.19;5016800;28;20668;-82
2021/01/27 07:39:29;;;;;;;9.77;7.13;;;;;;;1.39;76.22;100578.06;5015648;28;20661;-82
2021/01/27 07:42:07;;;;;;;10.67;7.57;;;;;;;1.39;75.72;100571.06;5017035;28;20213;-81
2021/01/27 07:44:35;;;;;;;9.40;7.57;;;;;;;1.41;75.74;100575.41;5016300;28;20247;-81
2021/01/27 07:47:08;;;;;;;10.53;7.77;;;;;;;1.42;75.95;100574.50;5015867;28;20203;-82
2021/01/27 07:49:42;;;;;;;12.13;8.67;;;;;;;1.40;75.54;100569.28;5015813;28;20215;-83
2021/01/27 07:52:17;;;;;;;11.87;8.30;;;;;;;1.41;75.69;100572.78;5019862;28;20252;-81
2021/01/27 07:54:48;;;;;;;15.50;9.90;;;;;;;1.38;75.63;100564.09;5020434;28;20311;-82
2021/01/27 07:57:27;;;;;;;18.20;11.20;;;;;;;1.37;75.38;100559.72;5017209;28;20333;-82
2021/01/27 08:00:02;;;;;;;13.30;9.67;;;;;;;1.37;75.39;100545.75;5016164;28;20248;-82
2021/01/27 08:02:32;;;;;;;16.67;11.00;;;;;;;1.37;75.06;100551.88;5013955;28;20233;-83
2021/01/27 08:05:02;;;;;;;16.03;12.17;;;;;;;1.36;75.69;100541.41;5015931;28;20233;-82
2021/01/27 08:07:32;;;;;;;16.77;12.00;;;;;;;1.35;75.58;100545.78;5016570;28;20206;-82
2021/01/27 08:10:08;;;;;;;12.90;10.50;;;;;;;1.34;75.13;100538.81;5016507;28;20223;-82
2021/01/27 08:12:40;;;;;;;17.80;11.50;;;;;;;1.32;75.21;100532.75;5015777;28;20202;-82
2021/01/27 08:15:11;;;;;;;20.27;12.03;;;;;;;1.31;75.22;100531.03;5016429;28;20627;-80
2021/01/27 08:17:45;;;;;;;16.80;11.07;;;;;;;1.29;76.02;100519.72;5023283;28;20211;-81
2021/01/27 08:20:19;;;;;;;14.47;11.27;;;;;;;1.27;75.58;100513.63;5018826;28;20649;-81
2021/01/27 08:22:48;;;;;;;16.50;11.60;;;;;;;1.29;75.68;100519.72;5017642;28;20213;-82
2021/01/27 08:25:47;;;;;;;18.97;11.30;;;;;;;1.28;76.07;100507.50;5019085;28;20230;-81
2021/01/27 08:28:23;;;;;;;15.73;11.50;;;;;;;1.29;75.98;100508.34;5018709;28;20207;-81
2021/01/27 08:31:19;;;;;;;17.73;10.77;;;;;;;1.30;76.09;100508.31;5012964;28;20269;-81
2021/01/27 08:33:57;;;;;;;14.73;10.53;;;;;;;1.30;76.42;100499.59;5011191;28;20579;-82
2021/01/27 08:37:11;;;;;;;14.60;10.93;;;;;;;1.30;76.39;100486.47;5019671;28;20195;-82
2021/01/27 08:39:38;;;;;;;13.23;9.17;;;;;;;1.32;76.58;100496.00;5015964;28;20199;-81
2021/01/27 08:42:20;;;;;;;12.43;9.13;;;;;;;1.33;76.18;100503.00;5018608;28;20272;-82
2021/01/27 08:44:47;;;;;;;16.00;9.93;;;;;;;1.35;76.07;100497.69;5014876;28;20231;-84
2021/01/27 08:47:23;;;;;;;14.73;9.37;;;;;;;1.35;76.15;100493.31;5015011;28;20199;-78
2021/01/27 08:49:53;;;;;;;13.10;9.93;;;;;;;1.37;75.94;100502.00;5012388;28;20217;-81
2021/01/27 08:52:37;;;;;;;10.97;8.77;;;;;;;1.40;76.50;100506.31;5013316;28;20211;-80
2021/01/27 08:55:36;;;;;;;12.67;9.33;;;;;;;1.41;76.27;100509.78;5014515;28;20779;-83
2021/01/27 08:58:28;;;;;;;9.27;7.73;;;;;;;1.41;76.10;100510.66;5012104;28;20211;-81
2021/01/27 09:00:56;;;;;;;9.57;7.73;;;;;;;1.40;76.25;100511.56;5013819;28;20210;-80
2021/01/27 09:03:52;;;;;;;10.17;8.33;;;;;;;1.41;76.30;100507.19;5012609;28;20726;-82
2021/01/27 09:06:25;;;;;;;12.53;9.23;;;;;;;1.41;76.23;100509.78;5011906;28;20238;-81
2021/01/27 09:08:53;;;;;;;11.77;8.70;;;;;;;1.42;75.88;100506.28;5012754;28;20196;-82
2021/01/27 09:11:19;;;;;;;12.90;8.13;;;;;;;1.43;75.77;100508.00;5012403;28;20198;-80
2021/01/27 09:13:47;;;;;;;9.80;8.30;;;;;;;1.45;76.12;100519.28;5014157;28;20640;-81
2021/01/27 09:16:15;;;;;;;10.60;7.93;;;;;;;1.47;75.67;100514.84;5014259;28;20207;-80
2021/01/27 09:18:43;;;;;;;17.77;11.87;;;;;;;1.47;75.64;100522.72;5014171;28;20207;-81
2021/01/27 09:21:13;;;;;;;16.33;11.67;;;;;;;1.46;75.98;100519.25;5014892;28;20782;-81
2021/01/27 09:23:40;;;;;;;13.03;9.20;;;;;;;1.47;75.40;100522.72;5014616;28;20260;-79
2021/01/27 09:26:15;;;;;;;15.00;10.93;;;;;;;1.47;75.34;100513.09;5014316;28;20203;-81
2021/01/27 09:28:41;;;;;;;13.55;8.75;;;;;;;1.48;75.43;100512.19;5015077;28;20202;-82
2021/01/27 09:31:14;;;;;;;14.63;9.87;;;;;;;1.48;75.50;100500.81;5014370;28;20215;-81
2021/01/27 09:33:40;;;;;;;17.53;10.53;;;;;;;1.49;75.97;100510.44;5017456;28;20207;-81
2021/01/27 09:36:10;;;;;;;11.70;8.73;;;;;;;1.50;75.96;100499.03;5019173;28;20653;-80
2021/01/27 09:38:37;;;;;;;14.30;8.77;;;;;;;1.51;75.37;100506.00;5018241;28;20214;-79
2021/01/27 09:41:06;;;;;;;16.90;9.33;;;;;;;1.51;75.77;100506.84;5018620;28;20214;-80
2021/01/27 09:43:36;;;;;;;9.03;7.10;;;;;;;1.51;75.46;100498.13;5019996;28;20344;-78
2021/01/27 09:46:20;;;;;;;8.47;7.27;;;;;;;1.49;75.37;100503.41;5015920;28;20253;-80
2021/01/27 09:48:48;;;;;;;10.80;7.33;;;;;;;1.51;75.30;100500.75;5018610;28;20205;-80
2021/01/27 09:51:16;;;;;;;9.60;7.60;;;;;;;1.52;74.81;100502.47;5017814;28;20203;-79
2021/01/27 09:53:44;;;;;;;10.93;7.43;;;;;;;1.53;75.11;100504.19;5018833;28;20206;-80
2021/01/27 09:56:15;;;;;;;8.87;7.17;;;;;;;1.53;75.29;100499.81;5018781;28;20210;-81
2021/01/27 09:58:42;;;;;;;9.57;7.07;;;;;;;1.53;74.98;100498.94;5019102;28;20199;-80
2021/01/27 10:01:14;;;;;;;11.67;7.60;;;;;;;1.53;75.37;100489.31;5013751;28;20206;-81
2021/01/27 10:03:43;;;;;;;8.33;7.13;;;;;;;1.55;74.71;100486.63;5017877;28;20210;-81
2021/01/27 10:06:35;;;;;;;8.23;6.70;;;;;;;1.58;74.83;100476.91;5013997;28;20204;-78
2021/01/27 10:09:06;;;;;;;9.03;7.00;;;;;;;1.60;74.78;100487.38;5017023;28;20211;-77
2021/01/27 10:11:35;;;;;;;9.43;8.27;;;;;;;1.62;74.48;100485.53;5016778;28;20206;-79
2021/01/27 10:14:04;;;;;;;10.50;7.87;;;;;;;1.65;74.89;100488.06;5025930;28;20321;-79
2021/01/27 10:16:31;;;;;;;11.17;7.23;;;;;;;1.69;74.48;100471.34;5016434;28;20253;-81
2021/01/27 10:19:05;;;;;;;9.60;8.17;;;;;;;1.72;74.96;100481.75;5015474;28;20203;-81
2021/01/27 10:21:31;;;;;;;11.90;8.13;;;;;;;1.77;74.56;100477.22;5017119;28;20214;-81
2021/01/27 10:23:57;;;;;;;10.17;7.57;;;;;;;1.84;74.68;100470.88;5017377;28;20242;-81
2021/01/27 10:26:39;;;;;;;9.93;7.27;;;;;;;1.90;75.00;100465.44;5016636;28;20206;-81
2021/01/27 10:29:33;;;;;;;8.93;6.93;;;;;;;1.97;74.56;100474.84;5012472;28;20235;-81
2021/01/27 10:32:18;;;;;;;7.63;6.00;;;;;;;2.05;74.04;100461.47;5017762;28;20207;-82
2021/01/27 10:34:47;;;;;;;9.33;6.37;;;;;;;2.12;73.85;100467.41;5015534;28;20229;-80
2021/01/27 10:37:29;;;;;;;6.10;5.13;;;;;;;2.17;73.71;100470.72;5017608;28;20207;-81
2021/01/27 10:40:23;;;;;;;7.77;5.43;;;;;;;2.19;73.94;100469.75;5015613;28;20199;-81
2021/01/27 10:42:52;;;;;;;8.93;6.13;;;;;;;2.22;73.59;100461.78;4993684;28;20305;-81
2021/01/27 10:45:26;;;;;;;7.80;6.53;;;;;;;2.25;73.40;100468.72;5016734;28;20247;-81
2021/01/27 10:48:06;;;;;;;7.80;6.37;;;;;;;2.26;73.41;100466.06;5016720;28;20207;-81
2021/01/27 10:50:34;;;;;;;8.73;6.23;;;;;;;2.25;72.95;100469.59;5018865;28;20300;-82
2021/01/27 10:53:02;;;;;;;7.90;5.80;;;;;;;2.26;73.24;100457.31;5017570;28;20203;-81
2021/01/27 10:55:31;;;;;;;8.80;5.37;;;;;;;2.25;73.33;100458.22;5019206;28;20226;-83
2021/01/27 10:58:05;;;;;;;5.60;4.90;;;;;;;2.26;72.98;100465.19;5018993;28;20215;-82
2021/01/27 11:00:31;;;;;;;5.70;5.10;;;;;;;2.26;72.67;100459.94;5015838;28;20207;-81
2021/01/27 11:02:57;;;;;;;7.13;5.70;;;;;;;2.28;72.43;100458.13;5019910;28;20256;-82
2021/01/27 11:05:23;;;;;;;9.37;5.67;;;;;;;2.26;72.47;100445.03;5017266;28;20226;-81
2021/01/27 11:07:50;;;;;;;8.43;5.97;;;;;;;2.26;73.28;100449.44;5016213;28;20246;-81
2021/01/27 11:10:16;;;;;;;9.03;5.93;;;;;;;2.27;73.18;100443.25;5016441;28;20227;-79
2021/01/27 11:12:42;;;;;;;8.53;5.50;;;;;;;2.26;72.41;100442.41;5013435;28;21486;-80
2021/01/27 11:15:09;;;;;;;7.97;5.90;;;;;;;2.23;72.86;100433.75;5016858;28;20223;-80
2021/01/27 11:17:35;;;;;;;8.10;6.53;;;;;;;2.23;72.59;100441.63;5017078;28;20213;-79
2021/01/27 11:20:02;;;;;;;9.97;6.33;;;;;;;2.24;72.65;100436.34;5015710;28;20218;-80
2021/01/27 11:22:28;;;;;;;10.07;7.00;;;;;;;2.26;72.66;100431.88;5016775;28;20223;-80
2021/01/27 11:24:54;;;;;;;8.33;5.70;;;;;;;2.26;72.59;100431.03;5013634;28;20767;-80
2021/01/27 11:27:21;;;;;;;10.90;6.63;;;;;;;2.28;72.74;100416.06;5013736;28;20206;-80
2021/01/27 11:29:48;;;;;;;7.97;5.27;;;;;;;2.29;73.30;100418.66;5015584;28;20322;-80
2021/01/27 11:32:14;;;;;;;7.73;6.20;;;;;;;2.29;73.61;100423.91;5012019;28;20649;-80
2021/01/27 11:34:41;;;;;;;9.43;6.97;;;;;;;2.30;73.23;100416.88;5014726;28;20223;-80
2021/01/27 11:37:07;;;;;;;7.33;5.73;;;;;;;2.31;73.50;100414.22;5015044;28;20585;-80
2021/01/27 11:39:33;;;;;;;8.77;6.63;;;;;;;2.27;73.83;100411.72;5013340;28;20634;-80
2021/01/27 11:42:00;;;;;;;5.80;4.70;;;;;;;2.26;73.71;100405.63;5014500;28;20206;-79
2021/01/27 11:44:26;;;;;;;8.60;5.87;;;;;;;2.24;73.70;100414.44;5016260;28;20249;-80
2021/01/27 11:46:52;;;;;;;11.60;8.03;;;;;;;2.21;73.98;100417.19;5018341;28;20719;-79
2021/01/27 11:49:18;;;;;;;9.80;7.53;;;;;;;2.17;74.44;100423.44;5012770;28;20235;-78